Time;durP1;ratioP1;P1;durP2;ratioP2;P2;SDS_P1;SDS_P2;PMS_P1;PMS_P2;Temp;Humidity;BMP_temperature;BMP_pressure;BME280_temperature;BME280_humidity;BME280_pressure;Samples;Min_cycle;Max_cycle;Signal;HPM_P1;HPM_P2
2022/07/29 00:01:15;;;;;;;4.40;1.73;;;;;;;18.83;53.81;99877.06;5052823;28;20080;-61
2022/07/29 00:03:59;;;;;;;4.20;1.70;;;;;;;18.82;53.84;99877.94;5053347;28;20100;-60
2022/07/29 00:06:49;;;;;;;3.05;1.80;;;;;;;18.82;54.11;99870.06;5053105;28;20068;-61
2022/07/29 00:09:33;;;;;;;4.93;1.83;;;;;;;18.81;54.08;99870.97;5052034;28;20051;-60
2022/07/29 00:12:20;;;;;;;;;;;;;;;18.79;53.85;99870.13;5053690;28;20499;-61
2022/07/29 00:15:04;;;;;;;6.88;2.05;;;;;;;18.77;54.27;99864.88;5052390;28;20390;-60
2022/07/29 00:17:54;;;;;;;6.95;2.08;;;;;;;18.77;54.31;99859.63;5052823;28;20075;-60
2022/07/29 00:20:41;;;;;;;2.28;1.73;;;;;;;18.77;54.21;99864.88;5052174;28;20554;-62
2022/07/29 00:23:25;;;;;;;9.95;2.20;;;;;;;18.77;54.38;99862.25;5053235;28;20048;-60
2022/07/29 00:26:09;;;;;;;3.33;1.95;;;;;;;18.76;54.05;99857.94;5053077;28;20090;-62
2022/07/29 00:28:53;;;;;;;5.47;2.60;;;;;;;18.76;54.27;99852.69;5052737;28;20481;-62
2022/07/29 00:31:43;;;;;;;2.08;1.83;;;;;;;18.76;54.41;99849.19;5052848;28;20044;-61
2022/07/29 00:37:33;;;;;;;5.22;1.77;;;;;;;18.73;53.96;99850.13;5052655;28;20106;-62
2022/07/29 00:40:20;;;;;;;6.68;2.25;;;;;;;18.72;54.32;99843.16;5053053;28;20044;-63
2022/07/29 00:43:04;;;;;;;3.75;1.77;;;;;;;18.73;54.53;99850.13;5051726;28;20056;-61
2022/07/29 00:45:53;;;;;;;6.13;1.70;;;;;;;18.73;54.34;99844.88;5052656;28;20051;-61
2022/07/29 00:48:38;;;;;;;4.85;1.92;;;;;;;18.74;54.36;99843.09;5066020;28;20084;-62
2022/07/29 00:51:22;;;;;;;6.45;2.08;;;;;;;18.74;54.19;99840.47;5052649;28;20052;-62
2022/07/29 00:54:09;;;;;;;6.22;2.35;;;;;;;18.73;54.40;99844.88;5056391;28;20051;-62
2022/07/29 00:56:58;;;;;;;3.88;2.05;;;;;;;18.72;54.28;99838.75;5055502;28;20079;-62
2022/07/29 00:59:44;;;;;;;3.80;2.08;;;;;;;18.71;54.54;99839.63;5055831;28;20122;-62
2022/07/29 01:02:31;;;;;;;6.82;2.63;;;;;;;18.70;54.37;99839.69;5054908;28;20458;-62
2022/07/29 01:05:18;;;;;;;4.20;2.30;;;;;;;18.71;54.55;99854.53;5056311;28;20558;-61
2022/07/29 01:08:03;;;;;;;4.95;2.15;;;;;;;18.70;54.66;99866.78;5055296;28;20106;-61
2022/07/29 01:10:51;;;;;;;5.28;2.08;;;;;;;18.70;54.11;99869.41;5069412;28;20114;-60
2022/07/29 01:13:39;;;;;;;3.50;1.80;;;;;;;18.70;54.49;99873.81;5055203;28;20056;-61
2022/07/29 01:16:33;;;;;;;14.55;2.63;;;;;;;18.70;54.35;99865.94;5069062;28;20412;-60
2022/07/29 01:19:57;;;;;;;7.72;2.67;;;;;;;18.70;54.49;99872.03;5055119;28;20052;-63
2022/07/29 01:22:59;;;;;;;5.35;2.13;;;;;;;18.69;54.46;99862.44;5051937;28;20451;-62
2022/07/29 01:25:43;;;;;;;3.92;2.42;;;;;;;18.71;54.35;99855.38;5069044;28;20052;-62
2022/07/29 01:28:46;;;;;;;4.80;2.15;;;;;;;18.69;54.36;99858.94;5068963;28;20052;-62
2022/07/29 01:32:02;;;;;;;3.60;2.33;;;;;;;18.69;54.47;99841.44;5054852;28;20041;-62
2022/07/29 01:34:55;;;;;;;4.03;2.15;;;;;;;18.69;54.62;99838.81;5052245;28;20052;-62
2022/07/29 01:37:46;;;;;;;5.72;2.10;;;;;;;18.69;54.73;99840.56;5055422;28;20048;-62
2022/07/29 01:40:36;;;;;;;4.88;2.50;;;;;;;18.69;54.90;99838.81;5054722;28;20138;-62
2022/07/29 01:43:36;;;;;;;4.25;2.10;;;;;;;18.69;54.79;99843.19;5054593;28;20052;-62
2022/07/29 01:46:38;;;;;;;5.80;2.03;;;;;;;18.67;54.95;99831.88;5054645;28;20099;-62
2022/07/29 01:49:28;;;;;;;2.53;1.42;;;;;;;18.65;54.96;99826.66;5054279;28;20052;-62
2022/07/29 01:52:27;;;;;;;4.18;1.92;;;;;;;18.64;54.89;99827.56;5054644;28;20106;-62
2022/07/29 01:55:17;;;;;;;4.78;2.13;;;;;;;18.63;54.82;99822.31;5054131;28;20048;-62
2022/07/29 01:58:04;;;;;;;5.13;1.98;;;;;;;18.65;55.08;99825.78;5054130;28;20055;-62
2022/07/29 02:00:53;;;;;;;7.90;2.13;;;;;;;18.62;54.91;99826.72;5054167;28;20086;-62
2022/07/29 02:03:39;;;;;;;5.75;2.03;;;;;;;18.63;54.83;99824.94;5054838;28;20066;-62
2022/07/29 02:06:26;;;;;;;3.85;2.00;;;;;;;18.61;55.04;99830.25;5054429;28;20446;-62
2022/07/29 02:09:15;;;;;;;3.83;2.20;;;;;;;18.63;55.30;99830.19;5053994;28;20546;-62
2022/07/29 02:12:03;;;;;;;4.95;2.00;;;;;;;18.62;54.83;99825.84;5055099;28;20048;-62
2022/07/29 02:14:52;;;;;;;4.25;2.03;;;;;;;18.61;55.18;99824.13;5053783;28;20083;-62
2022/07/29 02:18:07;;;;;;;4.30;2.08;;;;;;;18.60;55.13;99828.50;5053681;28;20098;-62
2022/07/29 02:20:55;;;;;;;6.93;2.10;;;;;;;18.59;55.08;99825.94;5053562;28;20044;-62
2022/07/29 02:23:41;;;;;;;6.57;2.05;;;;;;;18.58;55.15;99824.19;5053706;28;20416;-62
2022/07/29 02:26:32;;;;;;;4.40;2.20;;;;;;;18.56;55.15;99825.09;5054560;28;20059;-60
2022/07/29 02:29:19;;;;;;;4.18;2.40;;;;;;;18.55;55.32;99825.09;5053835;28;20095;-60
2022/07/29 02:32:05;;;;;;;8.10;2.25;;;;;;;18.55;55.34;99818.13;5054738;28;20530;-61
2022/07/29 02:34:51;;;;;;;7.30;2.20;;;;;;;18.54;55.45;99821.63;5053368;28;20098;-61
2022/07/29 02:37:36;;;;;;;7.25;2.35;;;;;;;18.53;55.50;99825.16;5053554;28;20043;-60
2022/07/29 02:40:23;;;;;;;5.57;2.10;;;;;;;18.51;55.56;99812.97;5052994;28;20052;-60
2022/07/29 02:43:12;;;;;;;3.15;2.00;;;;;;;18.50;55.32;99819.94;5053513;28;20075;-61
2022/07/29 02:45:58;;;;;;;3.70;2.08;;;;;;;18.50;55.46;99814.72;5053379;28;20063;-61
2022/07/29 02:48:58;;;;;;;4.97;2.15;;;;;;;18.49;55.48;99809.50;5052949;28;20056;-61
2022/07/29 02:52:08;;;;;;;2.42;1.70;;;;;;;18.48;55.37;99816.50;5053312;28;20094;-61
2022/07/29 02:55:04;;;;;;;8.07;2.15;;;;;;;18.48;55.49;99820.91;5053722;28;20047;-60
2022/07/29 02:58:25;;;;;;;12.05;3.15;;;;;;;18.47;55.51;99822.63;5067388;28;20047;-62
2022/07/29 03:01:16;;;;;;;7.10;2.55;;;;;;;18.45;55.46;99813.94;5053561;28;20083;-60
2022/07/29 03:04:05;;;;;;;5.50;2.80;;;;;;;18.44;55.47;99827.97;5054078;28;20452;-60
2022/07/29 03:06:50;;;;;;;8.30;2.28;;;;;;;18.42;55.58;99814.88;5052771;28;20083;-61
2022/07/29 03:09:38;;;;;;;3.80;2.10;;;;;;;18.42;55.60;99814.88;5052701;28;20044;-60
2022/07/29 03:12:32;;;;;;;4.22;1.73;;;;;;;18.42;55.42;99814.88;5053014;28;20059;-62
2022/07/29 03:15:08;;;;;;;4.60;1.88;;;;;;;18.42;55.40;99817.50;5111684;27;20590;-59
2022/07/29 03:17:55;;;;;;;4.22;2.33;;;;;;;18.42;55.68;99822.72;5110508;28;20077;-62
2022/07/29 03:20:40;;;;;;;12.60;2.25;;;;;;;18.41;55.53;99821.00;5110438;28;20181;-61
2022/07/29 03:23:30;;;;;;;5.30;2.20;;;;;;;18.38;55.54;99813.19;5111219;28;20050;-62
2022/07/29 03:26:14;;;;;;;5.05;1.98;;;;;;;18.37;55.46;99816.69;5111368;28;20042;-62
2022/07/29 03:29:00;;;;;;;5.43;2.30;;;;;;;18.38;55.62;99817.59;5111161;28;20529;-62
2022/07/29 03:31:47;;;;;;;3.50;2.10;;;;;;;18.38;55.77;99820.22;5110179;28;20406;-63
2022/07/29 03:34:40;;;;;;;2.95;1.88;;;;;;;18.37;55.72;99813.22;5110090;28;20123;-60
2022/07/29 03:37:27;;;;;;;3.55;2.28;;;;;;;18.36;55.77;99812.38;5109989;28;20047;-62
2022/07/29 03:40:17;;;;;;;5.43;2.42;;;;;;;18.37;55.89;99813.22;5111187;28;20054;-62
2022/07/29 03:43:03;;;;;;;3.40;1.92;;;;;;;18.35;55.57;99813.28;5110200;28;20089;-62
2022/07/29 03:45:52;;;;;;;5.75;2.83;;;;;;;18.35;55.91;99813.28;5109926;28;20529;-62
2022/07/29 03:48:42;;;;;;;3.28;2.05;;;;;;;18.35;55.65;99813.28;5110062;28;20517;-62
2022/07/29 03:51:26;;;;;;;4.53;2.55;;;;;;;18.35;56.06;99813.28;5109790;28;20050;-60
2022/07/29 03:54:11;;;;;;;4.70;2.22;;;;;;;18.34;55.93;99815.91;5109690;28;20039;-60
2022/07/29 03:56:59;;;;;;;13.27;3.08;;;;;;;18.34;55.85;99818.53;5110935;28;20149;-60
2022/07/29 03:59:43;;;;;;;3.38;2.00;;;;;;;18.34;55.93;99815.91;5110054;28;20400;-61
2022/07/29 04:02:27;;;;;;;5.65;2.35;;;;;;;18.32;55.79;99807.19;5110568;28;20551;-60
2022/07/29 04:05:12;;;;;;;6.00;2.17;;;;;;;18.33;55.85;99811.56;5110721;28;20066;-61
2022/07/29 04:07:59;;;;;;;3.03;2.13;;;;;;;18.32;55.92;99812.44;5110500;28;20058;-60
2022/07/29 04:10:47;;;;;;;4.53;2.40;;;;;;;18.30;55.70;99817.72;5110506;28;20127;-61
2022/07/29 04:13:34;;;;;;;4.45;2.40;;;;;;;18.29;55.99;99818.63;5109088;28;20134;-61
2022/07/29 04:16:21;;;;;;;4.70;3.00;;;;;;;18.28;55.92;99822.16;5109404;28;20050;-61
2022/07/29 04:19:05;;;;;;;7.38;2.70;;;;;;;18.28;56.05;99821.28;5109359;28;20054;-60
2022/07/29 04:21:49;;;;;;;6.50;2.50;;;;;;;18.26;56.08;99814.31;5110441;28;20224;-62
2022/07/29 04:24:34;;;;;;;9.02;2.55;;;;;;;18.27;56.00;99812.53;5107352;28;20055;-62
2022/07/29 04:27:18;;;;;;;5.07;2.30;;;;;;;18.26;56.11;99813.44;5095662;28;20077;-61
2022/07/29 04:30:02;;;;;;;6.78;3.13;;;;;;;18.26;56.04;99816.06;5096724;28;20051;-62
2022/07/29 04:32:46;;;;;;;7.40;2.58;;;;;;;18.24;56.22;99810.84;5096405;28;20047;-61
2022/07/29 04:35:35;;;;;;;6.28;2.40;;;;;;;18.24;56.13;99809.97;5095373;28;20395;-62
2022/07/29 04:38:21;;;;;;;4.45;2.28;;;;;;;18.23;56.20;99814.38;5095525;28;20043;-62
2022/07/29 04:41:08;;;;;;;7.18;2.92;;;;;;;18.24;56.26;99821.34;5095485;28;20082;-62
2022/07/29 04:43:56;;;;;;;6.22;2.75;;;;;;;18.22;56.31;99828.38;5095643;28;20086;-62
2022/07/29 04:46:42;;;;;;;9.35;2.47;;;;;;;18.24;56.16;99838.81;5096169;28;20058;-62
2022/07/29 04:49:27;;;;;;;6.93;2.78;;;;;;;18.24;56.64;99837.09;5095930;28;20078;-62
2022/07/29 04:52:17;;;;;;;6.70;3.20;;;;;;;18.23;56.44;99843.22;5094990;28;20050;-60
2022/07/29 04:55:03;;;;;;;7.63;2.97;;;;;;;18.22;56.32;99854.59;5095013;28;20063;-60
2022/07/29 04:57:50;;;;;;;6.68;2.78;;;;;;;18.22;56.39;99859.84;5096392;28;20050;-60
2022/07/29 05:00:34;;;;;;;8.75;2.97;;;;;;;18.22;56.31;99866.84;5095871;28;20518;-61
2022/07/29 05:03:20;;;;;;;7.53;3.25;;;;;;;18.25;56.39;99866.78;5095984;28;20096;-61
2022/07/29 05:06:07;;;;;;;3.90;2.30;;;;;;;18.25;56.47;99861.53;5095578;28;20485;-61
2022/07/29 05:08:54;;;;;;;5.25;2.47;;;;;;;18.24;56.53;99868.56;5095552;28;20055;-61
2022/07/29 05:11:40;;;;;;;7.18;3.08;;;;;;;18.27;56.25;99870.25;5094921;28;20038;-60
2022/07/29 05:14:27;;;;;;;5.70;2.83;;;;;;;18.28;56.55;99865.88;5095737;28;20062;-63
2022/07/29 05:17:12;;;;;;;5.40;3.28;;;;;;;18.28;56.71;99869.34;5095427;28;20043;-62
2022/07/29 05:19:59;;;;;;;8.63;2.95;;;;;;;18.27;56.40;99859.75;5094852;28;20196;-62
2022/07/29 05:22:42;;;;;;;7.63;3.22;;;;;;;18.28;56.74;99866.72;5094707;28;20051;-62
2022/07/29 05:25:30;;;;;;;9.30;3.42;;;;;;;18.28;56.71;99863.25;5094383;28;20458;-61
2022/07/29 05:28:14;;;;;;;8.75;2.63;;;;;;;18.25;56.96;99861.53;5094646;28;20047;-60
2022/07/29 05:31:01;;;;;;;6.22;2.38;;;;;;;18.26;56.86;99866.78;5094438;28;20498;-61
2022/07/29 05:33:48;;;;;;;5.10;2.00;;;;;;;18.28;56.88;99864.09;5095344;28;20449;-61
2022/07/29 05:36:38;;;;;;;8.15;2.72;;;;;;;18.30;56.99;99867.56;5093403;28;20051;-61
2022/07/29 05:39:26;;;;;;;6.82;2.67;;;;;;;18.30;56.78;99864.94;5094279;28;20051;-61
2022/07/29 05:42:10;;;;;;;6.13;3.03;;;;;;;18.32;56.97;99878.91;5094718;28;20046;-60
2022/07/29 05:44:54;;;;;;;6.47;2.65;;;;;;;18.32;57.14;99883.28;5095082;28;20051;-60
2022/07/29 05:47:41;;;;;;;10.57;3.17;;;;;;;18.31;56.97;99890.28;5095159;28;20399;-62
2022/07/29 05:50:27;;;;;;;6.90;2.97;;;;;;;18.33;56.83;99882.38;5094066;28;20445;-61
2022/07/29 05:53:14;;;;;;;10.35;3.67;;;;;;;18.33;57.18;99879.75;5094791;28;20051;-61
2022/07/29 05:56:03;;;;;;;8.25;3.03;;;;;;;18.32;57.03;99876.28;5094064;28;20561;-63
2022/07/29 05:58:52;;;;;;;5.68;2.88;;;;;;;18.32;57.24;99868.41;5094214;28;20510;-63
2022/07/29 06:01:42;;;;;;;6.65;3.17;;;;;;;18.35;57.09;99870.09;5094977;28;20051;-62
2022/07/29 06:04:26;;;;;;;9.20;3.38;;;;;;;18.36;57.36;99882.34;5093887;28;20051;-61
2022/07/29 06:07:16;;;;;;;10.02;3.38;;;;;;;18.35;57.66;99886.72;5093930;28;20062;-62
2022/07/29 06:10:03;;;;;;;9.27;3.50;;;;;;;18.34;57.62;99890.25;5094380;28;20067;-62
2022/07/29 06:12:47;;;;;;;5.88;3.40;;;;;;;18.34;57.95;99897.22;5093422;28;20145;-63
2022/07/29 06:15:33;;;;;;;4.32;2.50;;;;;;;18.36;57.89;99898.06;5094605;28;20097;-62
2022/07/29 06:18:18;;;;;;;13.88;3.50;;;;;;;18.36;58.18;99895.44;5093682;28;20081;-62
2022/07/29 06:21:08;;;;;;;7.80;3.15;;;;;;;18.36;58.00;99898.06;5094355;28;20050;-63
2022/07/29 06:23:58;;;;;;;8.30;3.30;;;;;;;18.34;58.30;99897.22;5094190;28;20043;-62
2022/07/29 06:26:45;;;;;;;4.07;3.17;;;;;;;18.36;58.26;99903.31;5093508;28;20093;-62
2022/07/29 06:29:30;;;;;;;5.40;3.13;;;;;;;18.35;58.18;99902.47;5094424;28;20051;-62
2022/07/29 06:32:47;;;;;;;7.28;3.42;;;;;;;18.37;58.12;99908.53;5027596;28;20208;-63
2022/07/29 06:35:34;;;;;;;5.93;2.95;;;;;;;18.38;58.40;99906.78;5012738;28;20122;-63
2022/07/29 06:38:18;;;;;;;5.65;3.20;;;;;;;18.39;58.44;99908.50;5026954;28;20061;-62
2022/07/29 06:41:07;;;;;;;6.43;3.60;;;;;;;18.38;58.18;99905.00;5027724;28;20053;-61
2022/07/29 06:43:51;;;;;;;10.27;3.50;;;;;;;18.39;58.31;99900.63;5012727;28;20110;-62
2022/07/29 06:46:38;;;;;;;8.25;3.78;;;;;;;18.39;58.41;99903.25;5027150;28;20125;-62
2022/07/29 06:49:24;;;;;;;4.88;3.20;;;;;;;18.36;58.50;99893.69;5027262;28;20052;-61
2022/07/29 06:52:08;;;;;;;5.78;3.17;;;;;;;18.38;58.47;99897.13;5026958;28;20530;-61
2022/07/29 06:54:52;;;;;;;6.18;4.00;;;;;;;18.37;58.82;99902.41;5012337;28;20137;-61
2022/07/29 06:57:35;;;;;;;8.27;3.38;;;;;;;18.37;58.63;99903.28;5027493;28;20088;-61
2022/07/29 07:00:19;;;;;;;5.30;3.20;;;;;;;18.39;58.61;99906.75;5012500;28;20048;-63
2022/07/29 07:03:03;;;;;;;9.48;4.03;;;;;;;18.40;58.76;99907.63;5027283;28;20049;-63
2022/07/29 07:05:50;;;;;;;4.82;3.70;;;;;;;18.42;58.78;99908.47;5027072;28;20073;-62
2022/07/29 07:08:40;;;;;;;8.07;3.65;;;;;;;18.42;58.92;99911.09;5012258;28;20057;-61
2022/07/29 07:11:28;;;;;;;4.70;3.53;;;;;;;18.41;59.05;99914.59;5012079;28;20125;-61
2022/07/29 07:14:12;;;;;;;6.65;3.53;;;;;;;18.42;58.83;99916.34;5027002;28;20105;-61
2022/07/29 07:16:56;;;;;;;8.68;3.33;;;;;;;18.42;58.89;99917.19;5012124;28;20044;-61
2022/07/29 07:19:42;;;;;;;8.50;3.20;;;;;;;18.45;59.08;99918.88;5026996;28;20052;-61
2022/07/29 07:22:27;;;;;;;4.65;3.17;;;;;;;18.45;59.10;99925.91;5026800;28;20051;-61
2022/07/29 07:25:17;;;;;;;9.40;3.83;;;;;;;18.47;59.06;99932.84;5026785;28;20057;-61
2022/07/29 07:28:05;;;;;;;7.97;3.80;;;;;;;18.47;59.48;99929.38;5026629;28;20404;-61
2022/07/29 07:30:49;;;;;;;10.55;3.25;;;;;;;18.48;59.24;99924.06;5011645;28;20105;-61
2022/07/29 07:33:35;;;;;;;7.90;3.75;;;;;;;18.48;59.19;99920.59;5026745;28;20052;-63
2022/07/29 07:36:19;;;;;;;6.68;3.90;;;;;;;18.48;59.26;99923.22;5026532;28;20083;-63
2022/07/29 07:39:06;;;;;;;8.70;4.18;;;;;;;18.50;59.33;99921.44;5011630;28;20061;-63
2022/07/29 07:41:55;;;;;;;9.50;4.65;;;;;;;18.51;59.54;99929.28;5026492;28;20110;-62
2022/07/29 07:44:40;;;;;;;9.35;3.70;;;;;;;18.50;59.33;99932.78;5013162;28;20045;-63
2022/07/29 07:47:26;;;;;;;9.52;4.40;;;;;;;18.54;59.37;99938.84;5013260;28;20106;-62
2022/07/29 07:50:14;;;;;;;7.38;3.85;;;;;;;18.55;59.40;99938.81;5013366;28;20053;-62
2022/07/29 07:53:04;;;;;;;7.25;3.67;;;;;;;18.56;59.35;99930.06;5013324;28;20049;-62
2022/07/29 07:55:54;;;;;;;4.90;4.05;;;;;;;18.56;59.55;99930.06;5013357;28;20053;-63
2022/07/29 07:58:38;;;;;;;6.32;3.30;;;;;;;18.58;59.31;99939.66;5013146;28;20404;-62
2022/07/29 08:01:23;;;;;;;8.15;4.43;;;;;;;18.59;59.50;99942.25;5013250;28;20569;-63
2022/07/29 08:04:07;;;;;;;6.22;3.50;;;;;;;18.59;59.64;99946.66;4998416;28;20049;-62
2022/07/29 08:06:54;;;;;;;9.23;4.70;;;;;;;18.60;59.87;99940.50;4997834;28;20065;-61
2022/07/29 08:09:43;;;;;;;9.20;4.38;;;;;;;18.62;59.65;99944.81;5013195;28;20625;-61
2022/07/29 08:12:28;;;;;;;5.13;3.92;;;;;;;18.62;59.67;99939.56;5012909;28;20513;-61
2022/07/29 08:15:11;;;;;;;8.35;4.10;;;;;;;18.64;59.73;99935.16;4998080;28;20045;-61
2022/07/29 08:17:58;;;;;;;9.68;4.88;;;;;;;18.66;59.51;99940.38;5013075;28;20041;-61
2022/07/29 08:20:44;;;;;;;7.03;4.10;;;;;;;18.68;59.71;99944.72;4998216;28;20096;-61
2022/07/29 08:23:38;;;;;;;8.95;3.72;;;;;;;18.71;59.70;99943.78;4998324;28;20484;-61
2022/07/29 08:26:27;;;;;;;10.48;4.07;;;;;;;18.70;59.61;99945.53;5012977;28;20102;-61
2022/07/29 08:29:12;;;;;;;8.10;4.65;;;;;;;18.71;59.78;99946.41;4997909;28;20053;-61
2022/07/29 08:32:03;;;;;;;8.05;4.43;;;;;;;18.73;59.93;99949.88;4997355;28;20053;-61
2022/07/29 08:34:47;;;;;;;6.38;3.50;;;;;;;18.75;59.82;99955.06;5012756;28;20137;-61
2022/07/29 08:37:33;;;;;;;5.55;3.42;;;;;;;18.76;59.71;99955.06;5012599;28;20056;-61
2022/07/29 08:40:21;;;;;;;6.20;3.95;;;;;;;18.77;59.73;99955.91;5012388;28;20044;-61
2022/07/29 08:43:08;;;;;;;8.65;4.40;;;;;;;18.80;59.77;99955.88;4997822;28;20068;-61
2022/07/29 08:45:55;;;;;;;6.95;3.70;;;;;;;18.82;59.52;99954.94;5025860;28;20091;-63
2022/07/29 08:48:41;;;;;;;9.48;4.57;;;;;;;18.83;59.54;99961.06;4997666;28;20103;-60
2022/07/29 08:51:33;;;;;;;7.80;4.20;;;;;;;18.85;59.50;99948.75;4997392;28;20052;-61
2022/07/29 08:54:18;;;;;;;9.00;4.30;;;;;;;18.85;59.52;99960.13;4996646;28;20092;-61
2022/07/29 08:57:03;;;;;;;5.97;3.67;;;;;;;18.87;59.39;99958.34;4997543;28;20098;-61
2022/07/29 08:59:50;;;;;;;7.85;4.82;;;;;;;18.91;59.74;99960.91;5012462;28;20088;-61
2022/07/29 09:02:40;;;;;;;6.13;4.13;;;;;;;18.91;59.40;99964.38;4997394;28;20525;-61
2022/07/29 09:05:27;;;;;;;4.22;3.28;;;;;;;18.93;59.60;99965.22;4997423;28;20044;-61
2022/07/29 09:08:13;;;;;;;6.82;4.03;;;;;;;18.95;59.65;99965.22;5012303;28;20052;-62
2022/07/29 09:11:07;;;;;;;6.55;4.07;;;;;;;18.97;59.35;99963.44;4997164;28;20508;-61
2022/07/29 09:13:51;;;;;;;;;;;;;;;18.97;59.42;99964.31;5012407;28;20524;-61
2022/07/29 09:16:50;;;;;;;6.80;3.70;;;;;;;18.99;59.75;99969.53;5011943;28;19955;-61
2022/07/29 09:19:42;;;;;;;6.78;3.20;;;;;;;19.00;59.42;99963.38;5011888;28;20049;-61
2022/07/29 09:22:33;;;;;;;9.63;5.05;;;;;;;19.02;59.64;99977.34;4997345;28;20056;-61
2022/07/29 09:25:37;;;;;;;9.82;3.92;;;;;;;19.03;59.49;99965.94;4997173;28;20566;-61
2022/07/29 09:28:23;;;;;;;6.00;3.83;;;;;;;19.06;59.58;99972.88;4997233;28;20044;-63
2022/07/29 09:31:08;;;;;;;10.40;5.18;;;;;;;19.07;59.46;99972.88;4996763;28;20342;-63
2022/07/29 09:33:58;;;;;;;10.15;3.95;;;;;;;19.09;59.58;99978.94;5011654;28;20102;-61
2022/07/29 09:36:45;;;;;;;6.22;4.30;;;;;;;19.13;59.55;99977.97;5011487;28;20453;-61
2022/07/29 09:39:38;;;;;;;5.53;3.75;;;;;;;19.15;59.53;99981.44;5011769;28;20092;-62
2022/07/29 09:42:29;;;;;;;5.77;3.80;;;;;;;19.16;59.48;99983.19;5011530;28;20129;-63
2022/07/29 09:45:33;;;;;;;13.13;4.82;;;;;;;19.19;59.56;99989.28;4996810;28;20167;-62
2022/07/29 09:48:21;;;;;;;8.13;4.95;;;;;;;19.23;59.57;99985.69;5011451;28;20110;-61
2022/07/29 09:51:08;;;;;;;5.50;4.20;;;;;;;19.23;59.58;99981.28;5011184;28;20053;-61
2022/07/29 09:54:00;;;;;;;8.80;4.00;;;;;;;19.25;59.60;99976.88;5011496;28;20044;-61
2022/07/29 09:56:44;;;;;;;8.18;4.68;;;;;;;19.28;59.64;99971.56;4996540;28;20045;-61
2022/07/29 09:59:30;;;;;;;7.32;5.47;;;;;;;19.32;59.83;99977.59;5011456;28;20141;-61
2022/07/29 10:02:18;;;;;;;8.60;4.97;;;;;;;19.35;59.35;99971.41;4996463;28;20045;-61
2022/07/29 10:05:05;;;;;;;10.95;4.95;;;;;;;19.36;59.46;99970.50;4996855;28;20179;-61
2022/07/29 10:07:59;;;;;;;8.38;4.60;;;;;;;19.37;59.54;99980.13;4996451;28;20114;-63
2022/07/29 10:10:49;;;;;;;8.32;4.80;;;;;;;19.38;59.53;99972.22;5011208;28;20136;-61
2022/07/29 10:13:33;;;;;;;7.45;4.30;;;;;;;19.40;59.50;99967.78;4996304;28;20148;-61
2022/07/29 10:16:19;;;;;;;10.45;4.57;;;;;;;19.41;59.62;99964.25;5010971;28;20049;-61
2022/07/29 10:19:03;;;;;;;6.72;5.03;;;;;;;19.44;59.74;99963.34;4996146;28;20098;-61
2022/07/29 10:21:48;;;;;;;10.20;4.85;;;;;;;19.46;59.71;99972.06;5011278;28;20096;-61
2022/07/29 10:24:35;;;;;;;6.72;4.40;;;;;;;19.45;59.72;99965.94;4996398;28;20520;-61
2022/07/29 10:27:25;;;;;;;8.07;5.57;;;;;;;19.47;59.57;99972.03;4996483;28;20053;-61
2022/07/29 10:30:09;;;;;;;5.78;4.30;;;;;;;19.48;59.44;99970.25;5011090;28;20052;-61
2022/07/29 10:33:05;;;;;;;6.60;4.00;;;;;;;19.50;59.76;99975.47;4995964;28;20071;-61
2022/07/29 10:36:24;;;;;;;8.45;5.00;;;;;;;19.54;59.67;99974.53;4996305;28;20060;-61
2022/07/29 10:39:27;;;;;;;8.70;5.68;;;;;;;19.55;59.59;99974.47;4996071;28;20511;-61
2022/07/29 10:42:18;;;;;;;7.45;4.53;;;;;;;19.55;59.63;99979.75;5010949;28;20143;-61
2022/07/29 10:45:03;;;;;;;8.63;4.70;;;;;;;19.59;59.67;99972.63;5010763;28;20168;-61
2022/07/29 10:47:48;;;;;;;7.57;4.90;;;;;;;19.59;59.61;99978.78;5010413;28;20053;-61
2022/07/29 10:50:55;;;;;;;8.77;4.93;;;;;;;19.61;59.69;99986.63;4996025;28;20053;-61
2022/07/29 10:53:51;;;;;;;8.02;5.13;;;;;;;19.61;59.68;99978.72;5010516;28;20085;-61
2022/07/29 10:56:40;;;;;;;6.22;4.78;;;;;;;19.60;59.63;99970.00;5023726;28;20049;-61
2022/07/29 10:59:25;;;;;;;8.48;4.57;;;;;;;19.65;59.76;99972.50;5010802;28;20512;-61
2022/07/29 11:02:35;;;;;;;7.78;4.80;;;;;;;19.66;59.68;99976.88;4995966;28;20075;-61
2022/07/29 11:05:20;;;;;;;8.68;4.75;;;;;;;19.67;59.78;99975.97;5010413;28;20442;-61
2022/07/29 11:08:11;;;;;;;8.85;4.57;;;;;;;19.70;59.68;99978.50;4995909;28;20049;-62
2022/07/29 11:11:20;;;;;;;5.93;4.50;;;;;;;19.71;59.57;99980.25;4995772;28;20095;-62
2022/07/29 11:14:06;;;;;;;6.65;4.68;;;;;;;19.71;59.59;99972.34;5010860;28;20168;-62
2022/07/29 11:17:02;;;;;;;7.63;4.20;;;;;;;19.73;59.66;99980.22;4995690;28;20099;-62
2022/07/29 11:19:46;;;;;;;7.22;4.05;;;;;;;19.74;59.54;99976.69;4999190;28;20508;-62
2022/07/29 11:22:34;;;;;;;5.07;4.28;;;;;;;19.73;59.64;99974.97;5013715;28;20562;-63
2022/07/29 11:25:19;;;;;;;5.18;3.80;;;;;;;19.73;59.57;99975.81;4998930;28;20087;-61
2022/07/29 11:28:16;;;;;;;7.45;4.63;;;;;;;19.75;59.72;99970.53;4998983;28;20462;-60
2022/07/29 11:31:00;;;;;;;7.78;3.58;;;;;;;19.75;59.67;99958.25;4998520;28;20500;-61
2022/07/29 11:33:45;;;;;;;7.00;4.50;;;;;;;19.79;59.54;99969.53;4999089;28;20122;-61
2022/07/29 11:36:28;;;;;;;8.23;4.65;;;;;;;19.81;59.61;99973.00;5013505;28;20102;-61
2022/07/29 11:39:26;;;;;;;11.90;3.92;;;;;;;19.80;59.68;99973.91;4998415;28;20045;-61
2022/07/29 11:42:16;;;;;;;6.13;4.18;;;;;;;19.84;59.56;99972.09;4998694;28;20064;-63
2022/07/29 11:45:16;;;;;;;7.90;4.47;;;;;;;19.82;59.53;99969.47;4999007;28;20049;-61
2022/07/29 11:48:00;;;;;;;7.68;4.65;;;;;;;19.85;59.43;99981.72;5012982;28;20053;-61
2022/07/29 11:50:47;;;;;;;12.35;4.93;;;;;;;19.87;59.38;99982.53;5013352;28;20107;-62
2022/07/29 11:53:31;;;;;;;6.93;4.55;;;;;;;19.88;59.35;99984.28;5013430;28;20040;-62
2022/07/29 11:56:20;;;;;;;6.40;3.80;;;;;;;19.89;59.33;99986.00;4998466;28;20069;-62
2022/07/29 11:59:06;;;;;;;5.07;3.17;;;;;;;19.90;59.31;99974.59;4998590;28;20057;-62
2022/07/29 12:01:56;;;;;;;6.03;3.13;;;;;;;19.91;59.15;99977.22;4998463;28;20052;-62
2022/07/29 12:04:54;;;;;;;5.80;3.40;;;;;;;19.89;59.45;99963.22;5013191;28;20060;-62
2022/07/29 12:07:39;;;;;;;4.82;2.97;;;;;;;19.92;59.35;99970.16;4998263;28;20409;-62
2022/07/29 12:10:30;;;;;;;6.07;3.38;;;;;;;19.93;59.22;99969.25;4998326;28;20137;-62
2022/07/29 12:13:20;;;;;;;5.53;3.60;;;;;;;19.96;59.27;99960.44;4997971;28;20041;-62
2022/07/29 12:16:06;;;;;;;5.68;3.03;;;;;;;19.97;59.08;99965.66;5026065;28;20057;-62
2022/07/29 12:19:02;;;;;;;8.73;3.42;;;;;;;19.97;59.12;99970.94;5013055;28;20056;-62
2022/07/29 12:21:59;;;;;;;3.47;2.63;;;;;;;19.97;58.96;99970.06;5012703;28;20126;-62
2022/07/29 12:24:45;;;;;;;5.97;2.65;;;;;;;19.96;59.05;99968.31;4998181;28;20068;-62
2022/07/29 12:27:30;;;;;;;4.00;2.58;;;;;;;19.96;59.18;99970.94;5012980;28;20137;-63
2022/07/29 12:30:15;;;;;;;6.90;3.20;;;;;;;19.97;58.97;99965.66;4997971;28;20057;-62
2022/07/29 12:32:59;;;;;;;6.20;3.05;;;;;;;20.01;59.03;99966.44;4998034;28;20421;-62
2022/07/29 12:35:50;;;;;;;4.43;3.67;;;;;;;20.03;59.07;99969.91;5012391;28;20116;-62
2022/07/29 12:38:35;;;;;;;7.18;3.25;;;;;;;20.09;58.95;99972.38;5012659;28;20044;-62
2022/07/29 12:41:19;;;;;;;12.20;3.67;;;;;;;20.11;58.98;99975.84;5012730;28;20125;-62
2022/07/29 12:44:06;;;;;;;7.90;3.33;;;;;;;20.12;58.82;99971.47;5012502;28;20052;-62
2022/07/29 12:47:03;;;;;;;6.07;3.67;;;;;;;20.11;58.89;99967.09;5012132;28;20550;-62
2022/07/29 12:49:49;;;;;;;12.95;4.47;;;;;;;20.11;58.84;99975.00;5012308;28;20064;-61
2022/07/29 12:52:34;;;;;;;14.07;4.90;;;;;;;20.11;58.81;99977.63;4997481;28;20184;-61
2022/07/29 12:55:43;;;;;;;5.75;3.55;;;;;;;20.08;58.88;99976.78;5012160;28;20558;-61
2022/07/29 12:58:32;;;;;;;4.45;2.92;;;;;;;20.09;58.93;99977.63;5012380;28;20069;-61
2022/07/29 13:01:19;;;;;;;8.23;3.90;;;;;;;20.08;58.80;99973.31;4997645;28;20048;-63
2022/07/29 13:04:06;;;;;;;4.20;3.35;;;;;;;20.07;58.90;99971.56;4997583;28;20091;-61
2022/07/29 13:07:07;;;;;;;7.07;3.60;;;;;;;20.07;58.85;99972.44;5012272;28;20052;-60
2022/07/29 13:09:54;;;;;;;9.07;4.18;;;;;;;20.10;58.93;99968.00;4997334;28;20242;-61
2022/07/29 13:13:09;;;;;;;4.90;2.90;;;;;;;20.11;58.85;99975.00;5011942;28;20049;-61
2022/07/29 13:16:10;;;;;;;3.65;3.08;;;;;;;20.11;58.75;99975.00;4997589;28;20132;-61
2022/07/29 13:19:05;;;;;;;4.60;3.10;;;;;;;20.12;58.67;99976.72;5012043;28;20068;-61